Flight Track Log - Related Links

Times and Time Zones

All times are in EDT time to prevent confusion due to time zone crossing. See the NKS720 flight status page for this flight to view local times or setup timezone preferences in your user account.

Time Position Orientation Groundspeed Altitude Reporting Facility
EDT Latitude Longitude Course Direction KTS MPH feet Rate Location/Type
Mon 06:55:51 PM 33.9460 -118.4410 263° West 144 166 1,100  Level FlightAware ADS-B
Mon 06:56:06 PM 33.9450 -118.4530 264° West 161 185 1,400 1,000 Climbing FlightAware ADS-B
Mon 06:56:33 PM 33.9430 -118.4740 263° West 198 228 1,800 1,440 Climbing FlightAware ADS-B
Mon 06:56:56 PM 33.9410 -118.5030 265° West 225 259 2,600 3,000 Climbing FlightAware ADS-B
Mon 06:57:31 PM 33.9350 -118.5500 261° West 228 262 4,700 3,600 Climbing FlightAware ADS-B
Mon 06:57:41 PM 33.9290 -118.5620 239° Southwest 234 269 5,300 3,120 Climbing FlightAware ADS-B
Mon 06:57:56 PM 33.9140 -118.5720 209° Southwest 245 282 6,000 3,867 Climbing FlightAware ADS-B
Mon 06:58:26 PM 33.8740 -118.5490 154° Southeast 272 313 8,200 4,133 Climbing FlightAware ADS-B
Mon 06:58:41 PM 33.8700 -118.5280 103° East 280 322 9,100 3,450 Climbing FlightAware ADS-B
Mon 06:59:06 PM 33.8810 -118.4910 70° East 291 335 10,500 2,400 Climbing FlightAware ADS-B
Mon 06:59:51 PM 33.9280 -118.4360 44° Northeast 338 389 11,900 1,538 Climbing FlightAware ADS-B
Mon 07:00:24 PM 33.9480 -118.4090 48° Northeast 352 405 12,500 1,723 Climbing FlightAware ADS-B
Mon 07:01:25 PM 34.0210 -118.2780 56° Northeast 401 461 14,600 2,170 Climbing FlightAware ADS-B
Mon 07:01:58 PM 34.0540 -118.2170 57° Northeast 404 465 15,900 2,250 Climbing FlightAware ADS-B
Mon 07:02:37 PM 34.0960 -118.1420 56° Northeast 414 476 17,300 2,296 Climbing FlightAware ADS-B
Mon 07:03:19 PM 34.1430 -118.0610 55° Northeast 416 479 19,000 2,148 Climbing FlightAware ADS-B
Mon 07:03:58 PM 34.1870 -117.9830 56° Northeast 426 490 20,200 1,671 Climbing FlightAware ADS-B
Mon 07:04:38 PM 34.2330 -117.9020 55° Northeast 438 504 21,200 1,650 Climbing FlightAware ADS-B
Mon 07:05:18 PM 34.2770 -117.8230 56° Northeast 442 509 22,400 1,714 Climbing FlightAware ADS-B
Mon 07:06:02 PM 34.3290 -117.7310 56° Northeast 447 514 23,600 1,295 Climbing FlightAware ADS-B
Mon 07:06:46 PM 34.3790 -117.6410 56° Northeast 462 532 24,300 1,143 Climbing FlightAware ADS-B
Mon 07:07:26 PM 34.4290 -117.5520 56° Northeast 467 537 25,200 1,556 Climbing FlightAware ADS-B
Mon 07:08:07 PM 34.4770 -117.4650 56° Northeast 465 535 26,400 1,895 Climbing FlightAware ADS-B
Mon 07:08:42 PM 34.5200 -117.3880 56° Northeast 460 529 27,600 1,852 Climbing FlightAware ADS-B
Mon 07:09:28 PM 34.5720 -117.2940 56° Northeast 454 522 28,900 977 Climbing FlightAware ADS-B
Mon 07:10:08 PM 34.6200 -117.2060 56° Northeast 455 524 29,000 79 Climbing FlightAware ADS-B
Mon 07:10:44 PM 34.6610 -117.1320 56° Northeast 457 526 29,000  Level FlightAware ADS-B
Mon 07:11:27 PM 34.7080 -117.0460 56° Northeast 460 529 29,000  Level FlightAware ADS-B
Mon 07:12:04 PM 34.7550 -116.9590 57° Northeast 453 521 29,000  Level FlightAware ADS-B
Mon 07:12:50 PM 34.8080 -116.8630 56° Northeast 451 519 29,000 -419 Level FlightAware ADS-B
Mon 07:13:30 PM 34.8540 -116.7780 57° Northeast 448 516 28,400 -918 Descending FlightAware ADS-B
Mon 07:14:15 PM 34.9060 -116.6840 56° Northeast 444 511 27,700 -698 Descending FlightAware ADS-B
Mon 07:14:56 PM 34.9480 -116.6070 56° Northeast 445 512 27,400 -1,293 Descending FlightAware ADS-B
Mon 07:16:11 PM 35.0380 -116.4850 48° Northeast 416 479 25,200 -1,714 Descending FlightAware ADS-B
Mon 07:16:55 PM 35.1090 -116.3970 45° Northeast 397 457 24,000 -886 Descending FlightAware ADS-B
Mon 07:17:39 PM 35.1680 -116.3230 46° Northeast 416 479 23,900 -723 Descending FlightAware ADS-B
Mon 07:18:18 PM 35.2200 -116.2570 46° Northeast 411 473 23,000 -923 Descending FlightAware ADS-B
Mon 07:18:57 PM 35.2650 -116.2010 45° Northeast 410 472 22,700 -207 Descending FlightAware ADS-B
Mon 07:19:45 PM 35.3180 -116.1330 46° Northeast 410 472 22,700  Level FlightAware ADS-B
Mon 07:20:21 PM 35.3590 -116.0810 46° Northeast 410 472 22,700 -3,450 Level FlightAware ADS-B
Mon 07:21:05 PM 35.4340 -115.9880 45° Northeast 380 437 18,100 -4,024 Descending FlightAware ADS-B
Mon 07:21:43 PM 35.4790 -115.9300 46° Northeast 364 419 17,200 -1,481 Descending FlightAware ADS-B
Mon 07:22:26 PM 35.5300 -115.8660 46° Northeast 358 412 16,100 -1,590 Descending FlightAware ADS-B
Mon 07:23:06 PM 35.5750 -115.8090 46° Northeast 350 403 15,000 -1,658 Descending FlightAware ADS-B
Mon 07:23:42 PM 35.6150 -115.7570 47° Northeast 345 397 14,000 -1,291 Descending FlightAware ADS-B
Mon 07:24:25 PM 35.6620 -115.6970 46° Northeast 326 375 13,300 -538 Descending FlightAware ADS-B
Mon 07:25:00 PM 35.6940 -115.6560 46° Northeast 320 368 13,300  Level FlightAware ADS-B
Mon 07:25:36 PM 35.7260 -115.6160 45° Northeast 320 368 13,300  Level FlightAware ADS-B
Mon 07:26:24 PM 35.7680 -115.5630 46° Northeast 320 368 13,300 -97 Level FlightAware ADS-B
Mon 07:26:38 PM 35.8080 -115.5720 350° North 298 343 13,200 -111 Descending FlightAware ADS-B
Mon 07:27:18 PM 35.8620 -115.5700 North 300 345 13,200  Level FlightAware ADS-B
Mon 07:28:02 PM 35.9240 -115.5660 North 304 350 13,200  Level FlightAware ADS-B
Mon 07:28:30 PM 35.9620 -115.5580 10° North 300 345 13,200 -150 Level FlightAware ADS-B
Mon 07:28:42 PM 35.9750 -115.5460 37° Northeast 299 344 13,100 -857 Descending FlightAware ADS-B
Mon 07:28:58 PM 35.9860 -115.5220 60° Northeast 294 338 12,800 -471 Descending FlightAware ADS-B
Mon 07:29:33 PM 36.0000 -115.4730 71° East 295 339 12,700 -885 Descending FlightAware ADS-B
Mon 07:31:00 PM 36.0300 -115.3490 73° East 284 327 11,000 -1,172 Descending FlightAware ADS-B
Mon 07:31:41 PM 36.0230 -115.2660 96° East 275 316 10,200 -1,304 Descending FlightAware ADS-B
Mon 07:32:09 PM 36.0200 -115.2220 95° East 283 326 9,500 -1,263 Descending FlightAware ADS-B
Mon 07:32:38 PM 36.0170 -115.1740 94° East 285 328 9,000 -947 Descending FlightAware ADS-B
Mon 07:33:06 PM 36.0140 -115.1300 95° East 271 312 8,600 -857 Descending FlightAware ADS-B
Mon 07:33:34 PM 36.0110 -115.0870 95° East 264 304 8,200 -444 Descending FlightAware ADS-B
Mon 07:34:00 PM 36.0090 -115.0510 94° East 228 262 8,200 -143 Level FlightAware ADS-B
Mon 07:34:16 PM 36.0070 -115.0310 97° East 212 244 8,100 -811 Descending FlightAware ADS-B
Mon 07:34:37 PM 36.0060 -115.0070 93° East 201 231 7,700 -490 Descending FlightAware ADS-B
Mon 07:35:05 PM 36.0050 -114.9800 93° East 201 231 7,700 -1,418 Level FlightAware ADS-B
Mon 07:35:32 PM 36.0020 -114.9420 96° East 206 237 6,400 -2,000 Descending FlightAware ADS-B
Mon 07:35:53 PM 36.0100 -114.9210 65° Northeast 207 238 6,100 -882 Descending FlightAware ADS-B
Mon 07:36:06 PM 36.0220 -114.9150 22° Northeast 203 234 5,900 -857 Descending FlightAware ADS-B
Mon 07:36:35 PM 36.0490 -114.9180 355° North 201 231 5,500 -878 Descending FlightAware ADS-B
Mon 07:36:47 PM 36.0580 -114.9250 328° Northwest 197 227 5,300 -857 Descending FlightAware ADS-B
Mon 07:37:03 PM 36.0660 -114.9410 302° West 195 224 5,100 -955 Descending FlightAware ADS-B
Mon 07:37:31 PM 36.0730 -114.9710 286° West 203 234 4,600 -1,071 Descending FlightAware ADS-B
Mon 07:37:59 PM 36.0730 -115.0020 270° West 193 222 4,100 -1,038 Descending FlightAware ADS-B
Mon 07:38:23 PM 36.0740 -115.0270 273° West 172 198 3,700 -545 Descending FlightAware ADS-B
Mon 07:39:05 PM 36.0740 -115.0610 270° West 149 171 3,500 -675 Descending FlightAware ADS-B
Mon 07:39:43 PM 36.0740 -115.0910 270° West 146 168 2,800 -909 Descending FlightAware ADS-B
Mon 07:40:11 PM 36.0740 -115.1140 270° West 135 155 2,500 -655 Descending FlightAware ADS-B
Mon 07:40:38 PM 36.0740 -115.1340 270° West 139 160 2,200 -667 Descending FlightAware ADS-B
Mon 07:41:00 PM 36.0740 -115.1460 270° West 55 63 -6,000 Descending FlightAware ADS-B
Mon 07:41:25 PM 36.0740 -115.1530 270° West 55 63  Level FlightAware ADS-B
Mon 07:48:00 PM 36.0801 -115.1523 279° West  Level Estimated

Login

Don't have an account? Register now (free) for customized features, flight alerts, and more!